Search for airport 
image banner adimage banner adimage banner ad
image banner ad

PS72 - Haig-K

Located in Lionville, United States

ICAO - PS72, IATA -

Data provided by Airmate  

General information

Coordinates: N40°3'53" W75°36'41"
Elevation is 505 feet MSL.
Magnetic variation is -11° East
View others Airports in Pennsylvania

Operational data

Special qualification required
Current time UTC:
Current local time:
Weather at : KOQN - Brandywine ( 9 km )
METAR: KOQN 091235Z AUTO 26003KT 10SM BKN120 08/03 A3012 RMK AO2
View NOTAMs / SUP AIP / TFR affecting this airport [VIEW]
Communications frequencies: [VIEW]

Runways:

Airport contact information

Address: Lionville United States

Satellite view of PS72